Culdesac, ID (83524)

1:13 AM PDT on July 24, 2016 (GMT -0700)
APRSWXNET | | Change Station

Elev 3480 ft 46.35 °N, 116.53 °W | Updated 27 minutes ago

Clear
Clear
51 °F
Feels Like 51 °F
N
0
Wind Variable Wind from North
Gusts 0.0 mph

Today
High -- | Low -- °F
--% Chance of Precip.
Yesterday
High -- | Low -- °F
Precip. -- in
Pressure 30.06 in
Visibility 10.0 miles
Clouds Clear
Dew Point 45 °F
Humidity 79%
Rainfall in
Snow Depth Not available.
5:19 AM 8:26 PM
Waning Gibbous, 78% visible
METAR KLWS 240756Z AUTO 16004KT 10SM CLR 18/06 A3009 RMK AO2 SLP180 T01830056 403000139
Pressure 30.06 in
Visibility 10.0 miles
Clouds Clear
Dew Point 45 °F
Humidity 79%
Rainfall in
Snow Depth Not available.
5:19 AM 8:26 PM
Waning Gibbous, 78% visible
METAR KLWS 240756Z AUTO 16004KT 10SM CLR 18/06 A3009 RMK AO2 SLP180 T01830056 403000139

10-Day Weather Forecast

Almanac

Astronomy

Jul. 24, 2016 Rise Set
Actual Time
Civil Twilight
Nautical Twilight
Astronomical Twilight
Moon
Length of Visible Light
Length of Day
Tomorrow will be .
, % of the Moon is Illuminated

Today's Extremes

State Highs State Lows

Community

WunderPhotos

Upload Photos

1,927,041 photos uploaded!

WunderBlog® & News

Nearby

Air Quality

  Air Quality AQ Index Pollutant
Not available.

Snow Depth

Station Depth Elevation

Earthquake Activity

City Distance Mag. Time & Date
Minimum magnitude displayed is 2.5.

Coastal Water Temperatures

Place Temperature

Stations

Nearby Weather Stations

Station Location Temp. Windchill Dew Point Humidity Wind Precip. Elev Updated Type
                   

Watches & Warnings

There are currently no watches in effect.